Time,TemperatureF,DewpointF,PressureIn,WindDirection,WindDirectionDegrees,WindSpeedMPH,WindSpeedGustMPH,Humidity,HourlyPrecipIn,Conditions,Clouds,dailyrainin,SolarRadiationWatts/m^2,SoftwareType,DateUTC
2013-08-01 00:06:00,71.0,65.0,30.05,SE,145,2.0,8.0,82,0.00,,,0.00,0,weatherlink.com 1.10,2013-08-01 04:06:00,
2013-08-01 00:21:00,70.7,65.0,30.04,South,180,4.0,7.0,82,0.00,,,0.00,0,weatherlink.com 1.10,2013-08-01 04:21:00,
2013-08-01 00:36:00,70.5,65.0,30.04,SSW,197,3.0,7.0,83,0.00,,,0.00,0,weatherlink.com 1.10,2013-08-01 04:36:00,
2013-08-01 00:51:00,70.2,65.0,30.04,SSW,212,5.0,7.0,83,0.00,,,0.00,0,weatherlink.com 1.10,2013-08-01 04:51:00,
2013-08-01 01:06:00,69.9,65.0,30.04,SSW,213,1.0,7.0,84,0.00,,,0.00,0,weatherlink.com 1.10,2013-08-01 05:06:00,
2013-08-01 01:21:00,69.7,65.0,30.03,SSW,213,3.0,5.0,85,0.00,,,0.00,0,weatherlink.com 1.10,2013-08-01 05:21:00,
2013-08-01 01:36:00,69.3,65.0,30.03,SSW,213,1.0,4.0,85,0.00,,,0.00,0,weatherlink.com 1.10,2013-08-01 05:36:00,
2013-08-01 01:52:00,68.8,64.0,30.03,SSW,213,2.0,5.0,85,0.00,,,0.00,0,weatherlink.com 1.10,2013-08-01 05:52:00,
2013-08-01 02:07:00,68.4,64.0,30.02,SSW,213,0.0,3.0,85,0.00,,,0.00,0,weatherlink.com 1.10,2013-08-01 06:07:00,
2013-08-01 02:22:00,68.3,64.0,30.02,SSW,213,3.0,4.0,86,0.00,,,0.00,0,weatherlink.com 1.10,2013-08-01 06:22:00,
2013-08-01 02:37:00,68.6,64.0,30.01,SSW,213,2.0,7.0,86,0.00,,,0.00,0,weatherlink.com 1.10,2013-08-01 06:37:00,
2013-08-01 02:52:00,68.7,64.0,30.01,SW,228,5.0,9.0,85,0.00,,,0.00,0,weatherlink.com 1.10,2013-08-01 06:52:00,
2013-08-01 03:07:00,68.6,64.0,30.00,SW,229,1.0,9.0,85,0.00,,,0.00,0,weatherlink.com 1.10,2013-08-01 07:07:00,
2013-08-01 03:22:00,68.5,64.0,30.00,SW,229,3.0,5.0,85,0.00,,,0.00,0,weatherlink.com 1.10,2013-08-01 07:22:00,
2013-08-01 03:37:00,68.3,64.0,30.00,SW,229,4.0,7.0,85,0.00,,,0.00,0,weatherlink.com 1.10,2013-08-01 07:37:00,
2013-08-01 03:52:00,68.1,64.0,30.00,SW,229,4.0,6.0,86,0.00,,,0.00,0,weatherlink.com 1.10,2013-08-01 07:52:00,
2013-08-01 04:07:00,68.2,64.0,30.00,SW,229,2.0,5.0,87,0.00,,,0.00,0,weatherlink.com 1.10,2013-08-01 08:07:00,
2013-08-01 04:22:00,68.0,64.0,30.00,SW,229,2.0,5.0,87,0.00,,,0.00,0,weatherlink.com 1.10,2013-08-01 08:22:00,
2013-08-01 04:37:00,67.8,64.0,30.00,SW,229,3.0,5.0,87,0.00,,,0.00,0,weatherlink.com 1.10,2013-08-01 08:37:00,
2013-08-01 04:52:00,67.6,64.0,30.00,SW,229,0.0,5.0,88,0.00,,,0.00,0,weatherlink.com 1.10,2013-08-01 08:52:00,
2013-08-01 05:22:00,67.1,64.0,30.00,SW,229,0.0,2.0,89,0.00,,,0.00,0,weatherlink.com 1.10,2013-08-01 09:22:00,
2013-08-01 05:37:00,67.2,64.0,30.01,SW,229,4.0,6.0,89,0.00,,,0.00,0,weatherlink.com 1.10,2013-08-01 09:37:00,
2013-08-01 06:22:00,67.3,64.0,30.00,SW,229,0.0,3.0,89,0.00,,,0.00,37,weatherlink.com 1.10,2013-08-01 10:22:00,
2013-08-01 06:52:00,68.6,65.0,30.00,SW,229,0.0,0.0,88,0.00,,,0.00,229,weatherlink.com 1.10,2013-08-01 10:52:00,
2013-08-01 07:22:00,71.4,66.0,30.00,SW,229,2.0,6.0,83,0.00,,,0.00,271,weatherlink.com 1.10,2013-08-01 11:22:00,
2013-08-01 08:22:00,73.8,67.0,30.00,SW,229,0.0,4.0,78,0.00,,,0.00,445,weatherlink.com 1.10,2013-08-01 12:22:00,
2013-08-01 08:37:00,74.6,67.0,30.00,SW,229,0.0,3.0,78,0.00,,,0.00,492,weatherlink.com 1.10,2013-08-01 12:37:00,
2013-08-01 08:53:00,76.5,68.0,30.00,SW,229,0.0,4.0,75,0.00,,,0.00,538,weatherlink.com 1.10,2013-08-01 12:53:00,
2013-08-01 09:08:00,76.0,68.0,29.99,SW,229,1.0,5.0,76,0.00,,,0.00,580,weatherlink.com 1.10,2013-08-01 13:08:00,
2013-08-01 09:53:00,76.7,69.0,29.98,SW,229,4.0,5.0,76,0.00,,,0.00,693,weatherlink.com 1.10,2013-08-01 13:53:00,
2013-08-01 10:08:00,76.2,69.0,29.98,SW,229,1.0,5.0,78,0.00,,,0.00,728,weatherlink.com 1.10,2013-08-01 14:08:00,
2013-08-01 10:23:00,76.4,69.0,29.98,SW,229,2.0,6.0,78,0.00,,,0.00,761,weatherlink.com 1.10,2013-08-01 14:23:00,
2013-08-01 10:53:00,76.3,69.0,29.97,SW,229,0.0,5.0,77,0.00,,,0.00,810,weatherlink.com 1.10,2013-08-01 14:53:00,
2013-08-01 11:23:00,77.4,70.0,29.96,SW,229,0.0,6.0,77,0.00,,,0.00,849,weatherlink.com 1.10,2013-08-01 15:23:00,
2013-08-01 11:38:00,77.8,69.0,29.96,South,190,4.0,7.0,74,0.00,,,0.00,868,weatherlink.com 1.10,2013-08-01 15:38:00,
2013-08-01 12:23:00,78.0,69.0,29.95,SE,124,7.0,10.0,73,0.00,,,0.00,879,weatherlink.com 1.10,2013-08-01 16:23:00,
2013-08-01 12:38:00,78.2,70.0,29.94,SE,130,2.0,12.0,75,0.00,,,0.00,977,weatherlink.com 1.10,2013-08-01 16:38:00,
2013-08-01 12:53:00,78.2,69.0,29.94,SE,131,11.0,12.0,73,0.00,,,0.00,1049,weatherlink.com 1.10,2013-08-01 16:53:00,
2013-08-01 13:23:00,76.8,68.0,29.93,SE,132,7.0,14.0,75,0.00,,,0.00,237,weatherlink.com 1.10,2013-08-01 17:23:00,
2013-08-01 13:54:00,76.3,67.0,29.92,SE,132,2.0,11.0,74,0.00,,,0.00,114,weatherlink.com 1.10,2013-08-01 17:54:00,
2013-08-01 14:09:00,75.8,68.0,29.91,SE,131,2.0,12.0,76,0.00,,,0.00,229,weatherlink.com 1.10,2013-08-01 18:09:00,
2013-08-01 14:24:00,76.7,68.0,29.90,SSE,148,4.0,12.0,75,0.00,,,0.00,383,weatherlink.com 1.10,2013-08-01 18:24:00,
2013-08-01 14:39:00,77.6,67.0,29.90,South,184,7.0,9.0,70,0.00,,,0.00,264,weatherlink.com 1.10,2013-08-01 18:39:00,
2013-08-01 14:54:00,80.3,67.0,29.90,SSW,193,3.0,12.0,65,0.00,,,0.00,251,weatherlink.com 1.10,2013-08-01 18:54:00,
2013-08-01 15:09:00,81.5,67.0,29.90,South,183,0.0,17.0,61,0.00,,,0.00,213,weatherlink.com 1.10,2013-08-01 19:09:00,
2013-08-01 15:24:00,81.6,67.0,29.90,South,188,4.0,11.0,61,0.00,,,0.00,105,weatherlink.com 1.10,2013-08-01 19:24:00,
2013-08-01 15:39:00,80.5,66.0,29.90,SSW,205,8.0,11.0,61,0.00,,,0.00,141,weatherlink.com 1.10,2013-08-01 19:39:00,
2013-08-01 15:54:00,80.1,65.0,29.90,SSW,213,6.0,17.0,61,0.00,,,0.00,156,weatherlink.com 1.10,2013-08-01 19:54:00,
2013-08-01 16:09:00,79.6,65.0,29.90,SW,216,9.0,14.0,62,0.00,,,0.00,83,weatherlink.com 1.10,2013-08-01 20:09:00,
2013-08-01 16:24:00,79.3,66.0,29.91,WSW,242,2.0,15.0,63,0.00,,,0.00,118,weatherlink.com 1.10,2013-08-01 20:24:00,
2013-08-01 16:39:00,78.9,65.0,29.91,SW,227,10.0,18.0,62,0.00,,,0.00,125,weatherlink.com 1.10,2013-08-01 20:39:00,
2013-08-01 17:09:00,78.2,65.0,29.91,WSW,243,8.0,17.0,64,0.00,,,0.00,125,weatherlink.com 1.10,2013-08-01 21:09:00,
2013-08-01 17:39:00,77.4,65.0,29.91,SW,231,13.0,17.0,66,0.00,,,0.00,118,weatherlink.com 1.10,2013-08-01 21:39:00,
2013-08-01 17:54:00,77.0,64.0,29.90,SSW,211,11.0,17.0,65,0.00,,,0.00,58,weatherlink.com 1.10,2013-08-01 21:54:00,
2013-08-01 18:09:00,76.5,64.0,29.91,WSW,237,8.0,15.0,66,0.00,,,0.00,54,weatherlink.com 1.10,2013-08-01 22:09:00,
2013-08-01 18:24:00,76.0,64.0,29.91,SSW,213,10.0,17.0,66,0.00,,,0.00,37,weatherlink.com 1.10,2013-08-01 22:24:00,
2013-08-01 18:39:00,75.5,64.0,29.91,WSW,249,3.0,16.0,67,0.00,,,0.00,35,weatherlink.com 1.10,2013-08-01 22:39:00,
2013-08-01 18:54:00,75.1,64.0,29.91,SW,227,2.0,12.0,69,0.00,,,0.00,19,weatherlink.com 1.10,2013-08-01 22:54:00,
2013-08-01 19:09:00,74.7,63.0,29.91,SW,214,4.0,13.0,67,0.00,,,0.00,11,weatherlink.com 1.10,2013-08-01 23:09:00,
2013-08-01 19:39:00,74.0,64.0,29.91,SW,222,0.0,5.0,72,0.00,,,0.00,0,weatherlink.com 1.10,2013-08-01 23:39:00,
2013-08-01 19:54:00,73.4,64.0,29.91,SW,214,1.0,3.0,73,0.00,,,0.00,0,weatherlink.com 1.10,2013-08-01 23:54:00,
2013-08-01 20:09:00,73.1,64.0,29.91,SSW,213,0.0,11.0,72,0.00,,,0.00,0,weatherlink.com 1.10,2013-08-02 00:09:00,
2013-08-01 20:24:00,73.1,64.0,29.91,SSW,213,0.0,2.0,73,0.00,,,0.00,0,weatherlink.com 1.10,2013-08-02 00:24:00,
2013-08-01 20:54:00,72.6,64.0,29.91,SW,214,0.0,3.0,74,0.00,,,0.00,0,weatherlink.com 1.10,2013-08-02 00:54:00,
2013-08-01 21:09:00,72.5,64.0,29.91,SW,215,0.0,2.0,74,0.00,,,0.00,0,weatherlink.com 1.10,2013-08-02 01:09:00,
2013-08-01 21:24:00,72.3,64.0,29.91,SW,214,0.0,3.0,75,0.00,,,0.00,0,weatherlink.com 1.10,2013-08-02 01:24:00,
2013-08-01 21:39:00,72.2,64.0,29.91,SW,215,1.0,3.0,75,0.00,,,0.00,0,weatherlink.com 1.10,2013-08-02 01:39:00,
2013-08-01 22:09:00,72.1,65.0,29.91,SW,217,0.0,1.0,77,0.00,,,0.00,0,weatherlink.com 1.10,2013-08-02 02:09:00,
2013-08-01 22:39:00,71.7,65.0,29.90,SSW,207,0.0,3.0,78,0.00,,,0.00,0,weatherlink.com 1.10,2013-08-02 02:39:00,
2013-08-01 22:54:00,71.5,65.0,29.90,SSW,205,1.0,2.0,80,0.00,,,0.00,0,weatherlink.com 1.10,2013-08-02 02:54:00,
2013-08-01 23:24:00,70.3,64.0,29.89,SW,215,3.0,14.0,80,0.00,,,0.00,0,weatherlink.com 1.10,2013-08-02 03:24:00,
2013-08-01 23:39:00,69.9,63.0,29.88,SSW,202,8.0,13.0,79,0.00,,,0.00,0,weatherlink.com 1.10,2013-08-02 03:39:00,
2013-08-01 23:54:00,69.4,63.0,29.88,SSW,199,6.0,16.0,81,0.00,,,0.00,0,weatherlink.com 1.10,2013-08-02 03:54:00,